sensor_id;sensor_type;location;lat;lon;timestamp;pressure;altitude;pressure_sealevel;temperature;humidity
82416;BME280;72058;47.782;10.618;2024-02-04T00:00:52;94354.63;;;6.96;64.08
82416;BME280;72058;47.782;10.618;2024-02-04T00:03:18;94358.97;;;6.97;63.77
82416;BME280;72058;47.782;10.618;2024-02-04T00:05:44;94364.66;;;6.91;64.22
82416;BME280;72058;47.782;10.618;2024-02-04T00:08:10;94369.28;;;6.85;64.38
82416;BME280;72058;47.782;10.618;2024-02-04T00:10:35;94376.84;;;6.83;64.44
82416;BME280;72058;47.782;10.618;2024-02-04T00:13:00;94378.50;;;6.74;64.72
82416;BME280;72058;47.782;10.618;2024-02-04T00:15:26;94396.88;;;6.62;65.53
82416;BME280;72058;47.782;10.618;2024-02-04T00:17:51;94403.13;;;6.52;65.81
82416;BME280;72058;47.782;10.618;2024-02-04T00:20:17;94414.75;;;6.58;66.00
82416;BME280;72058;47.782;10.618;2024-02-04T00:22:42;94424.44;;;6.84;65.18
82416;BME280;72058;47.782;10.618;2024-02-04T00:25:07;94434.69;;;7.07;64.75
82416;BME280;72058;47.782;10.618;2024-02-04T00:27:37;94431.63;;;7.34;63.86
82416;BME280;72058;47.782;10.618;2024-02-04T00:30:02;94431.88;;;7.43;63.81
82416;BME280;72058;47.782;10.618;2024-02-04T00:32:27;94433.44;;;7.59;63.39
82416;BME280;72058;47.782;10.618;2024-02-04T00:34:53;94438.34;;;7.52;63.38
82416;BME280;72058;47.782;10.618;2024-02-04T00:37:19;94435.97;;;7.35;64.18
82416;BME280;72058;47.782;10.618;2024-02-04T00:39:45;94432.00;;;6.97;65.75
82416;BME280;72058;47.782;10.618;2024-02-04T00:42:10;94430.16;;;6.57;66.89
82416;BME280;72058;47.782;10.618;2024-02-04T00:44:36;94437.72;;;6.65;66.74
82416;BME280;72058;47.782;10.618;2024-02-04T00:47:01;94438.25;;;6.47;67.05
82416;BME280;72058;47.782;10.618;2024-02-04T00:49:27;94442.84;;;6.31;66.43
82416;BME280;72058;47.782;10.618;2024-02-04T00:51:53;94450.41;;;6.29;66.94
82416;BME280;72058;47.782;10.618;2024-02-04T00:54:18;94449.34;;;6.25;67.08
82416;BME280;72058;47.782;10.618;2024-02-04T00:56:44;94457.44;;;6.25;67.23
82416;BME280;72058;47.782;10.618;2024-02-04T00:59:09;94434.75;;;6.26;67.18
82416;BME280;72058;47.782;10.618;2024-02-04T01:01:35;94440.41;;;6.15;67.80
82416;BME280;72058;47.782;10.618;2024-02-04T01:04:00;94433.91;;;6.05;67.97
82416;BME280;72058;47.782;10.618;2024-02-04T01:06:25;94430.41;;;6.00;68.38
82416;BME280;72058;47.782;10.618;2024-02-04T01:08:51;94408.78;;;6.05;68.72
82416;BME280;72058;47.782;10.618;2024-02-04T01:11:16;94403.66;;;6.03;69.26
82416;BME280;72058;47.782;10.618;2024-02-04T01:13:41;94404.50;;;6.19;69.07
82416;BME280;72058;47.782;10.618;2024-02-04T01:16:07;94399.63;;;6.31;68.73
82416;BME280;72058;47.782;10.618;2024-02-04T01:18:32;94405.56;;;6.38;68.46
82416;BME280;72058;47.782;10.618;2024-02-04T01:20:58;94387.72;;;6.42;68.60
82416;BME280;72058;47.782;10.618;2024-02-04T01:23:25;94382.03;;;6.49;68.17
82416;BME280;72058;47.782;10.618;2024-02-04T01:25:50;94374.44;;;6.61;67.96
82416;BME280;72058;47.782;10.618;2024-02-04T01:28:16;94370.13;;;6.75;67.47
82416;BME280;72058;47.782;10.618;2024-02-04T01:30:41;94365.50;;;6.71;67.71
82416;BME280;72058;47.782;10.618;2024-02-04T01:33:07;94357.97;;;6.68;67.87
82416;BME280;72058;47.782;10.618;2024-02-04T01:35:32;94365.78;;;6.74;68.25
82416;BME280;72058;47.782;10.618;2024-02-04T01:37:57;94370.69;;;6.67;68.35
82416;BME280;72058;47.782;10.618;2024-02-04T01:40:23;94376.84;;;6.78;67.98
82416;BME280;72058;47.782;10.618;2024-02-04T01:42:48;94371.94;;;6.95;67.27
82416;BME280;72058;47.782;10.618;2024-02-04T01:45:13;94377.88;;;6.97;67.23
82416;BME280;72058;47.782;10.618;2024-02-04T01:47:40;94377.41;;;6.80;67.94
82416;BME280;72058;47.782;10.618;2024-02-04T01:50:06;94377.44;;;6.60;68.45
82416;BME280;72058;47.782;10.618;2024-02-04T01:52:32;94365.28;;;6.57;68.86
82416;BME280;72058;47.782;10.618;2024-02-04T01:55:00;94357.97;;;6.58;68.62
82416;BME280;72058;47.782;10.618;2024-02-04T01:57:26;94365.00;;;6.54;68.79
82416;BME280;72058;47.782;10.618;2024-02-04T01:59:52;94363.09;;;6.64;68.67
82416;BME280;72058;47.782;10.618;2024-02-04T02:02:20;94356.88;;;6.74;67.97
82416;BME280;72058;47.782;10.618;2024-02-04T02:04:46;94350.94;;;6.67;67.99
82416;BME280;72058;47.782;10.618;2024-02-04T02:07:12;94343.06;;;6.80;67.84
82416;BME280;72058;47.782;10.618;2024-02-04T02:09:40;94340.63;;;6.79;67.87
82416;BME280;72058;47.782;10.618;2024-02-04T02:12:18;94329.00;;;6.78;67.91
82416;BME280;72058;47.782;10.618;2024-02-04T02:14:49;94333.59;;;6.83;67.77
82416;BME280;72058;47.782;10.618;2024-02-04T02:17:20;94344.41;;;6.83;67.61
82416;BME280;72058;47.782;10.618;2024-02-04T02:20:12;94331.69;;;6.78;68.05
82416;BME280;72058;47.782;10.618;2024-02-04T02:22:57;94337.94;;;6.74;68.20
82416;BME280;72058;47.782;10.618;2024-02-04T02:25:28;94332.50;;;6.79;67.80
82416;BME280;72058;47.782;10.618;2024-02-04T02:27:56;94321.69;;;6.84;67.72
82416;BME280;72058;47.782;10.618;2024-02-04T02:30:21;94310.31;;;6.92;67.55
82416;BME280;72058;47.782;10.618;2024-02-04T02:32:48;94315.69;;;6.97;67.15
82416;BME280;72058;47.782;10.618;2024-02-04T02:35:15;94309.22;;;6.88;67.45
82416;BME280;72058;47.782;10.618;2024-02-04T02:37:43;94308.91;;;7.00;66.86
82416;BME280;72058;47.782;10.618;2024-02-04T02:40:28;94301.31;;;7.07;66.30
82416;BME280;72058;47.782;10.618;2024-02-04T02:42:55;94301.56;;;7.10;66.29
82416;BME280;72058;47.782;10.618;2024-02-04T02:45:21;94290.19;;;7.13;65.96
82416;BME280;72058;47.782;10.618;2024-02-04T02:47:49;94287.00;;;7.01;66.46
82416;BME280;72058;47.782;10.618;2024-02-04T02:50:15;94290.03;;;6.90;66.59
82416;BME280;72058;47.782;10.618;2024-02-04T02:52:40;94303.25;;;6.96;66.31
82416;BME280;72058;47.782;10.618;2024-02-04T02:55:06;94302.72;;;6.89;66.68
82416;BME280;72058;47.782;10.618;2024-02-04T02:57:31;94296.53;;;6.83;66.97
82416;BME280;72058;47.782;10.618;2024-02-04T02:59:56;94288.72;;;6.77;67.17
82416;BME280;72058;47.782;10.618;2024-02-04T03:02:22;94292.53;;;6.76;66.96
82416;BME280;72058;47.782;10.618;2024-02-04T03:04:47;94297.38;;;6.74;67.06
82416;BME280;72058;47.782;10.618;2024-02-04T03:07:13;94300.38;;;6.62;66.95
82416;BME280;72058;47.782;10.618;2024-02-04T03:09:38;94303.09;;;6.62;67.33
82416;BME280;72058;47.782;10.618;2024-02-04T03:12:03;94304.97;;;6.62;67.78
82416;BME280;72058;47.782;10.618;2024-02-04T03:14:29;94311.38;;;6.91;66.69
82416;BME280;72058;47.782;10.618;2024-02-04T03:16:54;94310.78;;;7.09;66.13
82416;BME280;72058;47.782;10.618;2024-02-04T03:19:19;94309.03;;;7.29;65.62
82416;BME280;72058;47.782;10.618;2024-02-04T03:21:47;94310.88;;;7.38;65.47
82416;BME280;72058;47.782;10.618;2024-02-04T03:24:12;94317.81;;;7.54;64.67
82416;BME280;72058;47.782;10.618;2024-02-04T03:26:37;94328.66;;;7.59;64.53
82416;BME280;72058;47.782;10.618;2024-02-04T03:29:03;94323.22;;;7.59;64.92
82416;BME280;72058;47.782;10.618;2024-02-04T03:31:30;94336.78;;;7.59;64.54
82416;BME280;72058;47.782;10.618;2024-02-04T03:33:56;94341.38;;;7.59;64.45
82416;BME280;72058;47.782;10.618;2024-02-04T03:36:23;94335.38;;;7.62;64.48
82416;BME280;72058;47.782;10.618;2024-02-04T03:38:49;94341.91;;;7.56;64.70
82416;BME280;72058;47.782;10.618;2024-02-04T03:41:14;94352.22;;;7.54;65.06
82416;BME280;72058;47.782;10.618;2024-02-04T03:43:40;94348.47;;;7.50;65.01
82416;BME280;72058;47.782;10.618;2024-02-04T03:46:05;94359.91;;;7.32;65.82
82416;BME280;72058;47.782;10.618;2024-02-04T03:48:30;94366.41;;;7.36;65.80
82416;BME280;72058;47.782;10.618;2024-02-04T03:50:56;94353.44;;;7.28;65.96
82416;BME280;72058;47.782;10.618;2024-02-04T03:53:21;94356.13;;;7.33;66.01
82416;BME280;72058;47.782;10.618;2024-02-04T03:55:48;94363.72;;;7.26;66.18
82416;BME280;72058;47.782;10.618;2024-02-04T03:58:13;94363.75;;;7.20;66.62
82416;BME280;72058;47.782;10.618;2024-02-04T04:00:39;94367.78;;;7.23;66.54
82416;BME280;72058;47.782;10.618;2024-02-04T04:03:05;94376.75;;;7.18;66.62
82416;BME280;72058;47.782;10.618;2024-02-04T04:05:30;94373.53;;;7.06;67.33
82416;BME280;72058;47.782;10.618;2024-02-04T04:07:55;94378.38;;;7.14;66.63
82416;BME280;72058;47.782;10.618;2024-02-04T04:10:21;94370.50;;;7.23;66.70
82416;BME280;72058;47.782;10.618;2024-02-04T04:12:46;94368.63;;;7.18;66.49
82416;BME280;72058;47.782;10.618;2024-02-04T04:15:11;94376.22;;;7.16;66.70
82416;BME280;72058;47.782;10.618;2024-02-04T04:17:37;94384.84;;;7.23;66.66
82416;BME280;72058;47.782;10.618;2024-02-04T04:20:04;94378.06;;;7.21;66.83
82416;BME280;72058;47.782;10.618;2024-02-04T04:22:30;94376.47;;;7.15;67.22
82416;BME280;72058;47.782;10.618;2024-02-04T04:24:55;94382.16;;;7.13;67.33
82416;BME280;72058;47.782;10.618;2024-02-04T04:27:20;94387.31;;;7.15;67.33
82416;BME280;72058;47.782;10.618;2024-02-04T04:29:45;94393.81;;;7.04;68.02
82416;BME280;72058;47.782;10.618;2024-02-04T04:32:11;94397.38;;;6.99;67.81
82416;BME280;72058;47.782;10.618;2024-02-04T04:34:36;94399.31;;;6.83;68.45
82416;BME280;72058;47.782;10.618;2024-02-04T04:37:01;94391.47;;;6.82;68.64
82416;BME280;72058;47.782;10.618;2024-02-04T04:39:27;94394.44;;;6.85;68.28
82416;BME280;72058;47.782;10.618;2024-02-04T04:41:52;94393.88;;;6.83;68.85
82416;BME280;72058;47.782;10.618;2024-02-04T04:44:17;94385.22;;;6.86;68.67
82416;BME280;72058;47.782;10.618;2024-02-04T04:46:43;94383.88;;;6.89;68.49
82416;BME280;72058;47.782;10.618;2024-02-04T04:49:09;94382.50;;;6.86;68.39
82416;BME280;72058;47.782;10.618;2024-02-04T04:51:34;94378.19;;;6.91;68.18
82416;BME280;72058;47.782;10.618;2024-02-04T04:54:00;94374.41;;;6.92;68.08
82416;BME280;72058;47.782;10.618;2024-02-04T04:56:25;94368.19;;;6.81;68.39
82416;BME280;72058;47.782;10.618;2024-02-04T04:58:50;94372.28;;;6.68;69.09
82416;BME280;72058;47.782;10.618;2024-02-04T05:01:16;94367.72;;;6.59;69.25
82416;BME280;72058;47.782;10.618;2024-02-04T05:03:42;94382.56;;;6.56;69.53
82416;BME280;72058;47.782;10.618;2024-02-04T05:06:07;94382.28;;;6.73;69.00
82416;BME280;72058;47.782;10.618;2024-02-04T05:08:33;94387.16;;;6.76;68.95
82416;BME280;72058;47.782;10.618;2024-02-04T05:10:58;94384.16;;;6.82;68.44
82416;BME280;72058;47.782;10.618;2024-02-04T05:13:23;94381.19;;;6.74;68.73
82416;BME280;72058;47.782;10.618;2024-02-04T05:15:49;94383.63;;;6.70;69.11
82416;BME280;72058;47.782;10.618;2024-02-04T05:18:14;94381.47;;;6.77;68.69
82416;BME280;72058;47.782;10.618;2024-02-04T05:20:39;94387.41;;;6.79;68.56
82416;BME280;72058;47.782;10.618;2024-02-04T05:23:05;94388.75;;;6.82;68.45
82416;BME280;72058;47.782;10.618;2024-02-04T05:25:30;94386.06;;;6.82;68.14
82416;BME280;72058;47.782;10.618;2024-02-04T05:27:56;94398.19;;;7.00;67.60
82416;BME280;72058;47.782;10.618;2024-02-04T05:30:21;94390.59;;;6.97;67.45
82416;BME280;72058;47.782;10.618;2024-02-04T05:32:47;94375.47;;;6.91;67.63
82416;BME280;72058;47.782;10.618;2024-02-04T05:35:12;94374.97;;;6.78;67.80
82416;BME280;72058;47.782;10.618;2024-02-04T05:37:37;94376.63;;;6.69;68.18
82416;BME280;72058;47.782;10.618;2024-02-04T05:40:03;94371.44;;;6.78;68.31
82416;BME280;72058;47.782;10.618;2024-02-04T05:42:30;94370.41;;;6.69;67.96
82416;BME280;72058;47.782;10.618;2024-02-04T05:44:57;94363.91;;;6.75;67.73
82416;BME280;72058;47.782;10.618;2024-02-04T05:47:22;94357.44;;;6.61;67.75
82416;BME280;72058;47.782;10.618;2024-02-04T05:49:48;94353.13;;;6.44;68.28
82416;BME280;72058;47.782;10.618;2024-02-04T05:52:14;94348.53;;;6.40;68.24
82416;BME280;72058;47.782;10.618;2024-02-04T05:54:40;94339.63;;;6.39;68.26
82416;BME280;72058;47.782;10.618;2024-02-04T05:57:05;94340.97;;;6.37;67.99
82416;BME280;72058;47.782;10.618;2024-02-04T05:59:31;94348.25;;;6.46;67.37
82416;BME280;72058;47.782;10.618;2024-02-04T06:01:57;94348.78;;;6.69;67.01
82416;BME280;72058;47.782;10.618;2024-02-04T06:04:22;94339.28;;;6.81;66.17
82416;BME280;72058;47.782;10.618;2024-02-04T06:06:47;94341.34;;;7.05;65.30
82416;BME280;72058;47.782;10.618;2024-02-04T06:09:13;94338.34;;;7.16;64.49
82416;BME280;72058;47.782;10.618;2024-02-04T06:11:39;94344.25;;;7.23;64.09
82416;BME280;72058;47.782;10.618;2024-02-04T06:14:04;94343.13;;;7.35;63.33
82416;BME280;72058;47.782;10.618;2024-02-04T06:16:29;94343.59;;;7.47;62.90
82416;BME280;72058;47.782;10.618;2024-02-04T06:18:55;94335.69;;;7.55;62.39
82416;BME280;72058;47.782;10.618;2024-02-04T06:21:22;94329.47;;;7.55;62.06
82416;BME280;72058;47.782;10.618;2024-02-04T06:23:48;94336.53;;;7.51;62.19
82416;BME280;72058;47.782;10.618;2024-02-04T06:26:13;94325.13;;;7.59;61.92
82416;BME280;72058;47.782;10.618;2024-02-04T06:28:38;94306.19;;;7.59;61.98
82416;BME280;72058;47.782;10.618;2024-02-04T06:31:04;94308.91;;;7.54;61.73
82416;BME280;72058;47.782;10.618;2024-02-04T06:33:29;94308.16;;;7.43;62.28
82416;BME280;72058;47.782;10.618;2024-02-04T06:35:54;94312.53;;;7.34;62.59
82416;BME280;72058;47.782;10.618;2024-02-04T06:38:21;94314.41;;;7.39;62.45
82416;BME280;72058;47.782;10.618;2024-02-04T06:40:46;94317.59;;;7.51;61.88
82416;BME280;72058;47.782;10.618;2024-02-04T06:43:12;94313.72;;;7.62;61.91
82416;BME280;72058;47.782;10.618;2024-02-04T06:45:37;94318.53;;;7.70;61.06
82416;BME280;72058;47.782;10.618;2024-02-04T06:48:03;94324.97;;;7.84;60.73
82416;BME280;72058;47.782;10.618;2024-02-04T06:50:28;94336.00;;;7.93;60.29
82416;BME280;72058;47.782;10.618;2024-02-04T06:52:53;94330.25;;;7.99;59.83
82416;BME280;72058;47.782;10.618;2024-02-04T06:55:19;94336.72;;;8.04;59.70
82416;BME280;72058;47.782;10.618;2024-02-04T06:57:44;94350.53;;;8.07;59.43
82416;BME280;72058;47.782;10.618;2024-02-04T07:00:10;94355.88;;;8.12;59.24
82416;BME280;72058;47.782;10.618;2024-02-04T07:02:37;94367.75;;;8.21;58.96
82416;BME280;72058;47.782;10.618;2024-02-04T07:05:02;94364.75;;;8.28;58.53
82416;BME280;72058;47.782;10.618;2024-02-04T07:07:28;94359.31;;;8.28;58.61
82416;BME280;72058;47.782;10.618;2024-02-04T07:09:53;94359.31;;;8.28;58.66
82416;BME280;72058;47.782;10.618;2024-02-04T07:12:18;94362.03;;;8.28;58.79
82416;BME280;72058;47.782;10.618;2024-02-04T07:14:44;94368.53;;;8.27;58.64
82416;BME280;72058;47.782;10.618;2024-02-04T07:17:09;94354.44;;;8.25;58.63
82416;BME280;72058;47.782;10.618;2024-02-04T07:19:37;94359.31;;;8.28;58.63
82416;BME280;72058;47.782;10.618;2024-02-04T07:22:02;94361.72;;;8.34;58.71
82416;BME280;72058;47.782;10.618;2024-02-04T07:24:27;94351.97;;;8.33;58.56
82416;BME280;72058;47.782;10.618;2024-02-04T07:26:53;94357.94;;;8.35;58.56
82416;BME280;72058;47.782;10.618;2024-02-04T07:29:18;94357.13;;;8.35;58.42
82416;BME280;72058;47.782;10.618;2024-02-04T07:31:44;94355.53;;;8.24;58.83
82416;BME280;72058;47.782;10.618;2024-02-04T07:34:09;94351.47;;;8.26;58.90
82416;BME280;72058;47.782;10.618;2024-02-04T07:36:34;94344.94;;;8.32;58.84
82416;BME280;72058;47.782;10.618;2024-02-04T07:39:00;94339.50;;;8.32;58.68
82416;BME280;72058;47.782;10.618;2024-02-04T07:41:27;94351.69;;;8.35;58.63
82416;BME280;72058;47.782;10.618;2024-02-04T07:43:53;94350.03;;;8.39;58.40
82416;BME280;72058;47.782;10.618;2024-02-04T07:46:18;94355.41;;;8.44;58.20
82416;BME280;72058;47.782;10.618;2024-02-04T07:48:43;94357.81;;;8.46;58.25
82416;BME280;72058;47.782;10.618;2024-02-04T07:51:09;94358.94;;;8.45;58.61
82416;BME280;72058;47.782;10.618;2024-02-04T07:53:34;94355.78;;;8.32;58.62
82416;BME280;72058;47.782;10.618;2024-02-04T07:56:01;94355.41;;;8.44;58.74
82416;BME280;72058;47.782;10.618;2024-02-04T07:58:29;94356.78;;;8.42;58.72
82416;BME280;72058;47.782;10.618;2024-02-04T08:00:54;94361.53;;;8.55;58.25
82416;BME280;72058;47.782;10.618;2024-02-04T08:03:19;94360.91;;;8.63;57.75
82416;BME280;72058;47.782;10.618;2024-02-04T08:05:45;94356.84;;;8.65;57.84
82416;BME280;72058;47.782;10.618;2024-02-04T08:08:10;94349.63;;;8.80;57.43
82416;BME280;72058;47.782;10.618;2024-02-04T08:10:35;94352.59;;;8.83;57.47
82416;BME280;72058;47.782;10.618;2024-02-04T08:13:01;94350.34;;;8.90;57.47
82416;BME280;72058;47.782;10.618;2024-02-04T08:15:27;94350.63;;;8.89;57.42
82416;BME280;72058;47.782;10.618;2024-02-04T08:17:52;94343.06;;;8.86;57.20
82416;BME280;72058;47.782;10.618;2024-02-04T08:20:18;94345.47;;;8.87;57.52
82416;BME280;72058;47.782;10.618;2024-02-04T08:22:43;94345.97;;;8.94;57.26
82416;BME280;72058;47.782;10.618;2024-02-04T08:25:08;94353.31;;;8.94;57.16
82416;BME280;72058;47.782;10.618;2024-02-04T08:27:37;94340.28;;;8.91;57.19
82416;BME280;72058;47.782;10.618;2024-02-04T08:30:02;94346.44;;;9.01;57.17
82416;BME280;72058;47.782;10.618;2024-02-04T08:32:28;94340.72;;;9.03;56.92
82416;BME280;72058;47.782;10.618;2024-02-04T08:34:53;94335.75;;;9.10;56.89
82416;BME280;72058;47.782;10.618;2024-02-04T08:37:18;94348.28;;;9.06;56.51
82416;BME280;72058;47.782;10.618;2024-02-04T08:39:45;94347.13;;;9.12;56.66
82416;BME280;72058;47.782;10.618;2024-02-04T08:42:10;94347.34;;;9.16;56.69
82416;BME280;72058;47.782;10.618;2024-02-04T08:44:35;94361.38;;;9.23;56.30
82416;BME280;72058;47.782;10.618;2024-02-04T08:47:01;94351.59;;;9.22;56.37
82416;BME280;72058;47.782;10.618;2024-02-04T08:49:28;94354.91;;;9.19;56.28
82416;BME280;72058;47.782;10.618;2024-02-04T08:51:54;94344.88;;;9.19;56.26
82416;BME280;72058;47.782;10.618;2024-02-04T08:54:19;94344.69;;;9.10;56.68
82416;BME280;72058;47.782;10.618;2024-02-04T08:56:45;94348.72;;;9.13;56.46
82416;BME280;72058;47.782;10.618;2024-02-04T08:59:10;94343.81;;;9.15;56.41
82416;BME280;72058;47.782;10.618;2024-02-04T09:01:35;94347.41;;;9.10;56.70
82416;BME280;72058;47.782;10.618;2024-02-04T09:04:01;94358.00;;;9.12;56.62
82416;BME280;72058;47.782;10.618;2024-02-04T09:06:26;94347.69;;;9.09;57.51
82416;BME280;72058;47.782;10.618;2024-02-04T09:08:52;94346.53;;;9.15;57.24
82416;BME280;72058;47.782;10.618;2024-02-04T09:11:17;94337.88;;;9.13;57.16
82416;BME280;72058;47.782;10.618;2024-02-04T09:13:45;94344.88;;;9.19;57.01
82416;BME280;72058;47.782;10.618;2024-02-04T09:16:10;94338.34;;;9.20;56.95
82416;BME280;72058;47.782;10.618;2024-02-04T09:18:36;94333.69;;;9.21;56.83
82416;BME280;72058;47.782;10.618;2024-02-04T09:21:01;94334.81;;;9.20;56.88
82416;BME280;72058;47.782;10.618;2024-02-04T09:23:27;94345.72;;;9.14;57.57
82416;BME280;72058;47.782;10.618;2024-02-04T09:25:52;94335.22;;;9.08;57.34
82416;BME280;72058;47.782;10.618;2024-02-04T09:28:18;94337.88;;;9.13;57.45
82416;BME280;72058;47.782;10.618;2024-02-04T09:30:43;94337.38;;;9.11;57.58
82416;BME280;72058;47.782;10.618;2024-02-04T09:33:08;94327.59;;;9.10;57.59
82416;BME280;72058;47.782;10.618;2024-02-04T09:35:34;94335.41;;;9.17;57.40
82416;BME280;72058;47.782;10.618;2024-02-04T09:37:59;94336.41;;;9.21;57.27
82416;BME280;72058;47.782;10.618;2024-02-04T09:40:25;94339.22;;;9.16;57.07
82416;BME280;72058;47.782;10.618;2024-02-04T09:42:50;94340.53;;;9.18;57.21
82416;BME280;72058;47.782;10.618;2024-02-04T09:45:17;94336.28;;;9.12;57.01
82416;BME280;72058;47.782;10.618;2024-02-04T09:47:44;94331.97;;;9.06;57.33
82416;BME280;72058;47.782;10.618;2024-02-04T09:50:10;94333.50;;;9.17;56.62
82416;BME280;72058;47.782;10.618;2024-02-04T09:52:39;94325.81;;;9.24;56.53
82416;BME280;72058;47.782;10.618;2024-02-04T09:55:07;94333.09;;;9.29;56.52
82416;BME280;72058;47.782;10.618;2024-02-04T09:57:34;94336.75;;;9.38;55.86
82416;BME280;72058;47.782;10.618;2024-02-04T10:00:02;94335.38;;;9.40;55.64
82416;BME280;72058;47.782;10.618;2024-02-04T10:02:30;94330.47;;;9.42;55.64
82416;BME280;72058;47.782;10.618;2024-02-04T10:04:57;94332.66;;;9.40;55.17
82416;BME280;72058;47.782;10.618;2024-02-04T10:07:22;94339.25;;;9.34;55.65
82416;BME280;72058;47.782;10.618;2024-02-04T10:09:49;94334.00;;;9.43;55.61
82416;BME280;72058;47.782;10.618;2024-02-04T10:12:15;94334.84;;;9.38;55.24
82416;BME280;72058;47.782;10.618;2024-02-04T10:14:40;94334.84;;;9.38;55.58
82416;BME280;72058;47.782;10.618;2024-02-04T10:17:06;94347.56;;;9.43;55.10
82416;BME280;72058;47.782;10.618;2024-02-04T10:19:32;94346.41;;;9.49;55.06
82416;BME280;72058;47.782;10.618;2024-02-04T10:22:03;94346.91;;;9.51;55.02
82416;BME280;72058;47.782;10.618;2024-02-04T10:24:29;94352.06;;;9.52;55.11
82416;BME280;72058;47.782;10.618;2024-02-04T10:26:58;94346.97;;;9.46;55.63
82416;BME280;72058;47.782;10.618;2024-02-04T10:29:24;94353.28;;;9.41;55.97
82416;BME280;72058;47.782;10.618;2024-02-04T10:31:56;94347.19;;;9.49;55.82
82416;BME280;72058;47.782;10.618;2024-02-04T10:34:25;94349.41;;;9.47;56.23
82416;BME280;72058;47.782;10.618;2024-02-04T10:36:50;94343.84;;;9.58;56.04
82416;BME280;72058;47.782;10.618;2024-02-04T10:39:16;94337.38;;;9.54;55.88
82416;BME280;72058;47.782;10.618;2024-02-04T10:41:51;94339.75;;;9.60;55.89
82416;BME280;72058;47.782;10.618;2024-02-04T10:44:21;94337.97;;;9.69;55.46
82416;BME280;72058;47.782;10.618;2024-02-04T10:46:47;94335.75;;;9.71;55.38
82416;BME280;72058;47.782;10.618;2024-02-04T10:49:14;94331.66;;;9.74;55.23
82416;BME280;72058;47.782;10.618;2024-02-04T10:51:41;94334.91;;;9.76;55.28
82416;BME280;72058;47.782;10.618;2024-02-04T10:54:07;94335.41;;;9.78;55.01
82416;BME280;72058;47.782;10.618;2024-02-04T10:56:42;94322.66;;;9.78;54.51
82416;BME280;72058;47.782;10.618;2024-02-04T10:59:10;94310.59;;;9.84;54.59
82416;BME280;72058;47.782;10.618;2024-02-04T11:01:38;94321.09;;;9.91;54.40
82416;BME280;72058;47.782;10.618;2024-02-04T11:04:05;94308.00;;;9.93;53.70
82416;BME280;72058;47.782;10.618;2024-02-04T11:06:30;94310.78;;;9.88;54.07
82416;BME280;72058;47.782;10.618;2024-02-04T11:08:57;94311.25;;;9.95;53.86
82416;BME280;72058;47.782;10.618;2024-02-04T11:11:24;94317.28;;;9.92;53.14
82416;BME280;72058;47.782;10.618;2024-02-04T11:13:54;94312.69;;;9.87;53.45
82416;BME280;72058;47.782;10.618;2024-02-04T11:27:21;94307.59;;;9.86;54.13
82416;BME280;72058;47.782;10.618;2024-02-04T11:29:47;94298.63;;;9.85;54.30
82416;BME280;72058;47.782;10.618;2024-02-04T11:32:12;94299.72;;;9.84;54.05
82416;BME280;72058;47.782;10.618;2024-02-04T11:34:38;94279.88;;;9.84;54.36
82416;BME280;72058;47.782;10.618;2024-02-04T11:37:24;94272.03;;;9.82;54.78
82416;BME280;72058;47.782;10.618;2024-02-04T11:39:52;94267.13;;;9.84;54.84
82416;BME280;72058;47.782;10.618;2024-02-04T11:42:18;94278.84;;;9.80;54.92
82416;BME280;72058;47.782;10.618;2024-02-04T11:44:44;94273.88;;;9.87;55.19
82416;BME280;72058;47.782;10.618;2024-02-04T11:47:22;94263.91;;;9.96;54.72
82416;BME280;72058;47.782;10.618;2024-02-04T11:49:55;94264.53;;;9.93;54.90
82416;BME280;72058;47.782;10.618;2024-02-04T11:52:21;94260.72;;;9.94;55.17
82416;BME280;72058;47.782;10.618;2024-02-04T11:54:46;94252.47;;;9.99;55.01
82416;BME280;72058;47.782;10.618;2024-02-04T11:57:14;94260.34;;;10.01;54.90
82416;BME280;72058;47.782;10.618;2024-02-04T11:59:40;94256.41;;;10.07;54.91
82416;BME280;72058;47.782;10.618;2024-02-04T12:02:07;94268.22;;;10.16;54.57
82416;BME280;72058;47.782;10.618;2024-02-04T12:04:33;94251.84;;;10.21;54.46
82416;BME280;72058;47.782;10.618;2024-02-04T12:06:59;94262.25;;;10.33;54.37
82416;BME280;72058;47.782;10.618;2024-02-04T12:09:26;94266.50;;;10.39;54.08
82416;BME280;72058;47.782;10.618;2024-02-04T12:11:53;94268.03;;;10.45;54.40
82416;BME280;72058;47.782;10.618;2024-02-04T12:14:18;94271.75;;;10.49;53.80
82416;BME280;72058;47.782;10.618;2024-02-04T12:16:44;94272.56;;;10.49;54.04
82416;BME280;72058;47.782;10.618;2024-02-04T12:19:10;94267.94;;;10.50;53.41
82416;BME280;72058;47.782;10.618;2024-02-04T12:21:37;94263.59;;;10.49;53.38
82416;BME280;72058;47.782;10.618;2024-02-04T12:24:03;94269.78;;;10.54;53.79
82416;BME280;72058;47.782;10.618;2024-02-04T12:26:29;94257.19;;;10.58;53.04
82416;BME280;72058;47.782;10.618;2024-02-04T12:28:54;94272.41;;;10.59;52.99
82416;BME280;72058;47.782;10.618;2024-02-04T12:31:21;94263.53;;;10.54;52.38
82416;BME280;72058;47.782;10.618;2024-02-04T12:33:57;94254.69;;;10.62;52.31
82416;BME280;72058;47.782;10.618;2024-02-04T12:36:26;94253.25;;;10.64;51.96
82416;BME280;72058;47.782;10.618;2024-02-04T12:39:00;94255.59;;;10.71;52.00
82416;BME280;72058;47.782;10.618;2024-02-04T12:41:26;94254.28;;;10.69;51.91
82416;BME280;72058;47.782;10.618;2024-02-04T12:43:53;94249.00;;;10.72;51.91
82416;BME280;72058;47.782;10.618;2024-02-04T12:46:20;94240.97;;;10.67;51.58
82416;BME280;72058;47.782;10.618;2024-02-04T12:48:54;94239.06;;;10.68;51.71
82416;BME280;72058;47.782;10.618;2024-02-04T12:51:31;94231.09;;;10.71;51.55
82416;BME280;72058;47.782;10.618;2024-02-04T12:54:10;94230.47;;;10.74;51.28
82416;BME280;72058;47.782;10.618;2024-02-04T12:56:53;94242.75;;;10.72;51.60
82416;BME280;72058;47.782;10.618;2024-02-04T12:59:31;94233.50;;;10.73;51.94
82416;BME280;72058;47.782;10.618;2024-02-04T13:01:58;94222.81;;;10.76;52.17
82416;BME280;72058;47.782;10.618;2024-02-04T13:04:24;94213.97;;;10.71;52.00
82416;BME280;72058;47.782;10.618;2024-02-04T13:06:50;94199.03;;;10.68;52.42